Aviation Digital Data Service (ADDS)

Output produced by METARs form (1835 UTC 22 May 2019)
found at http://aviationweather.gov/metar/data/
 
KCLT 221737Z 2218/2324 07006KT 5SM HZ BKN014 
     FM222200 08005KT P6SM SCT040 
     TEMPO 2223/2303 4SM -SHRA OVC025 
     FM230400 17004KT P6SM BKN017 
     FM230700 21005KT P6SM BKN006 
     FM231500 22006KT P6SM BKN018 
     FM231700 24007KT P6SM SCT050